Athol, Pennsylvania
Current Conditions -  °F | °C
As of 5:54 AM on Wednesday 26 Nov 2014 (Local Time) from KPTW Reporting Station
Light Rain Light Rain  
Wind Chill: 36°   Ceiling: 4800
Heat Index: 42°   Visibility: 10mi
Dew Point: 32°   Wind: 10mph
Humidity: 67%   Direction: 20°NNE
Pressure: 30.11"   Gusts: NA
Location:  40.3194°N, 75.7364°W
Report Text: KPTW 261054Z AUTO 02009KT 10SM -RA OVC048 06/00 A3011 RMK AO2 RAB04 SLP195 P0000 T00560000
Loading
Personal Weather Stations






























Interactive Weather Map New forecast layout! Learn more

10-Day Weather Forecast

Advertisements
Track Severe Weather on mobile